Robbins, Illinois
Current Conditions -  °F | °C
As of 9:53 AM on Friday 24 Oct 2014 (Local Time) from KMDW Reporting Station
Few Clouds Few Clouds  
Wind Chill: 14°   Ceiling: Unl
Heat Index: 14°   Visibility: 10mi
Dew Point:   Wind: 3mph
Humidity: 72%   Direction: NA
Pressure: 30.06"   Gusts: NA
Location:  41.64°N, 87.7°W
Report Text: KMDW 241453Z VRB03KT 10SM FEW029 FEW250 14/09 A3006 RMK AO2 SLP179 T01390089 50002
Loading
Personal Weather Stations






























Interactive Weather Map
Tropical Storm Tracking
New forecast layout! Learn more

10-Day Weather Forecast

Advertisements
Track Severe Weather on mobile